createdAt,value
2018-05-11T00:01:17.118Z,23.20
2018-05-11T00:03:45.439Z,13.50
2018-05-11T00:06:13.852Z,18.33
2018-05-11T00:08:42.157Z,9.00
2018-05-11T00:11:10.550Z,12.30
2018-05-11T00:13:39.122Z,9.77
2018-05-11T00:16:07.469Z,10.27
2018-05-11T00:18:35.777Z,10.83
2018-05-11T00:21:04.511Z,12.10
2018-05-11T00:23:32.867Z,10.67
2018-05-11T00:26:01.230Z,11.30
2018-05-11T00:28:29.674Z,7.13
2018-05-11T00:30:58.031Z,12.80
2018-05-11T00:33:26.389Z,20.47
2018-05-11T00:35:55.106Z,11.07
2018-05-11T00:38:23.408Z,15.03
2018-05-11T00:40:51.704Z,13.20
2018-05-11T00:43:20.040Z,15.53
2018-05-11T00:45:48.357Z,13.83
2018-05-11T00:48:16.681Z,17.10
2018-05-11T00:50:45.173Z,13.23
2018-05-11T00:53:13.477Z,11.70
2018-05-11T00:55:49.789Z,11.37
2018-05-11T00:58:18.099Z,9.77
2018-05-11T01:00:46.467Z,11.90
2018-05-11T01:03:15.152Z,14.70
2018-05-11T01:05:43.461Z,15.90
2018-05-11T01:08:11.810Z,9.17
2018-05-11T01:10:40.448Z,11.20
2018-05-11T01:13:08.772Z,12.23
2018-05-11T01:15:37.107Z,18.47
2018-05-11T01:18:05.609Z,7.27
2018-05-11T01:20:33.941Z,12.23
2018-05-11T01:23:02.292Z,19.60
2018-05-11T01:25:30.894Z,9.03
2018-05-11T01:27:59.563Z,13.07
2018-05-11T01:30:27.905Z,17.47
2018-05-11T01:32:56.292Z,17.43
2018-05-11T01:35:25.464Z,17.60
2018-05-11T01:37:53.815Z,17.13
2018-05-11T01:40:22.182Z,11.30
2018-05-11T01:42:50.907Z,12.47
2018-05-11T01:45:19.232Z,8.43
2018-05-11T01:47:47.942Z,14.17
2018-05-11T01:50:16.254Z,15.90
2018-05-11T01:52:44.602Z,10.53
2018-05-11T01:55:13.322Z,11.90
2018-05-11T01:57:41.657Z,15.23
2018-05-11T02:00:10.026Z,15.20
2018-05-11T02:02:38.403Z,19.53
2018-05-11T02:05:06.775Z,21.13
2018-05-11T02:07:35.132Z,14.70
2018-05-11T02:10:03.549Z,13.40
2018-05-11T02:12:31.975Z,14.00
2018-05-11T02:15:00.335Z,13.87
2018-05-11T02:17:28.935Z,11.83
2018-05-11T02:19:57.301Z,21.83
2018-05-11T02:22:25.695Z,10.73
2018-05-11T02:24:55.224Z,11.30
2018-05-11T02:27:23.559Z,16.13
2018-05-11T02:29:51.907Z,16.70
2018-05-11T02:32:20.247Z,16.53
2018-05-11T02:34:48.592Z,15.70
2018-05-11T02:37:16.906Z,10.67
2018-05-11T02:39:45.522Z,17.47
2018-05-11T02:42:13.829Z,14.20
2018-05-11T02:44:42.129Z,10.40
2018-05-11T02:47:10.614Z,14.37
2018-05-11T02:49:38.939Z,16.73
2018-05-11T02:52:07.238Z,15.87
2018-05-11T02:54:35.602Z,19.20
2018-05-11T02:57:03.939Z,12.70
2018-05-11T02:59:32.531Z,12.67
2018-05-11T03:02:00.891Z,11.83
2018-05-11T03:04:29.221Z,11.00
2018-05-11T03:06:57.559Z,13.03
2018-05-11T03:09:26.373Z,15.90
2018-05-11T03:11:54.720Z,18.00
2018-05-11T03:14:23.021Z,13.57
2018-05-11T03:16:51.599Z,11.20
2018-05-11T03:19:19.983Z,14.83
2018-05-11T03:21:48.304Z,8.40
2018-05-11T03:24:16.853Z,12.43
2018-05-11T03:26:45.164Z,21.93
2018-05-11T03:29:13.476Z,18.43
2018-05-11T03:31:41.914Z,16.90
2018-05-11T03:34:10.233Z,16.70
2018-05-11T03:36:38.530Z,7.07
2018-05-11T03:39:07.096Z,10.00
2018-05-11T03:41:35.560Z,11.03
2018-05-11T03:44:03.943Z,12.60
2018-05-11T03:46:32.295Z,8.73
2018-05-11T03:49:00.623Z,10.13
2018-05-11T03:51:28.991Z,17.00
2018-05-11T03:53:57.594Z,13.00
2018-05-11T03:56:25.975Z,13.93
2018-05-11T03:58:54.333Z,16.47
2018-05-11T04:01:34.466Z,13.13
2018-05-11T04:04:14.815Z,15.73
2018-05-11T04:06:55.223Z,13.90
2018-05-11T04:09:23.552Z,10.73
2018-05-11T04:11:51.859Z,12.60
2018-05-11T04:14:21.468Z,10.90
2018-05-11T04:16:49.804Z,10.47
2018-05-11T04:19:18.105Z,14.13
2018-05-11T04:21:46.482Z,10.70
2018-05-11T04:24:14.799Z,12.03
2018-05-11T04:26:43.142Z,14.40
2018-05-11T04:29:11.605Z,13.50
2018-05-11T04:31:39.915Z,16.67
2018-05-11T04:34:08.253Z,13.53
2018-05-11T04:36:38.073Z,17.57
2018-05-11T04:39:06.391Z,24.97
2018-05-11T04:41:34.746Z,16.63
2018-05-11T04:44:03.225Z,25.47
2018-05-11T04:46:31.613Z,25.93
2018-05-11T04:49:00.008Z,20.87
2018-05-11T04:51:28.582Z,21.17
2018-05-11T04:53:56.936Z,18.30
2018-05-11T04:56:25.249Z,17.43
2018-05-11T04:58:54.029Z,18.57
2018-05-11T05:01:22.364Z,23.57
2018-05-11T05:03:50.701Z,20.03
2018-05-11T05:06:19.041Z,24.90
2018-05-11T05:08:48.318Z,17.03
2018-05-11T05:11:16.625Z,23.80
2018-05-11T05:13:44.998Z,22.90
2018-05-11T05:16:14.251Z,26.07
2018-05-11T05:18:43.495Z,20.60
2018-05-11T05:21:12.060Z,13.80
2018-05-11T05:23:40.386Z,22.10
2018-05-11T05:26:08.708Z,21.23
2018-05-11T05:28:37.233Z,16.80
2018-05-11T05:31:05.573Z,18.43
2018-05-11T05:33:33.981Z,16.43
2018-05-11T05:36:02.356Z,21.03
2018-05-11T05:38:30.717Z,14.87
2018-05-11T05:40:59.110Z,16.27
2018-05-11T05:43:27.497Z,15.17
2018-05-11T05:45:55.934Z,15.07
2018-05-11T05:48:24.256Z,14.20
2018-05-11T05:50:52.599Z,16.10
2018-05-11T05:53:20.929Z,23.90
2018-05-11T05:55:49.303Z,15.87
2018-05-11T05:58:17.644Z,14.60
2018-05-11T06:00:45.955Z,15.30
2018-05-11T06:03:14.295Z,10.47
2018-05-11T06:05:42.633Z,16.90
2018-05-11T06:08:10.972Z,13.57
2018-05-11T06:10:39.264Z,15.33
2018-05-11T06:13:07.998Z,22.47
2018-05-11T06:15:36.360Z,16.67
2018-05-11T06:18:04.817Z,11.43
2018-05-11T06:20:33.186Z,13.23
2018-05-11T06:23:01.591Z,13.63
2018-05-11T06:25:31.279Z,11.90
2018-05-11T06:27:59.662Z,11.87
2018-05-11T06:30:28.013Z,10.43
2018-05-11T06:32:56.498Z,9.57
2018-05-11T06:35:24.869Z,12.63
2018-05-11T06:37:53.177Z,17.87
2018-05-11T06:40:21.518Z,12.00
2018-05-11T06:42:50.109Z,16.07
2018-05-11T06:45:18.419Z,7.47
2018-05-11T06:47:46.760Z,11.63
2018-05-11T06:50:15.123Z,11.63
2018-05-11T06:52:43.451Z,16.60
2018-05-11T06:55:11.751Z,16.63
2018-05-11T06:57:40.197Z,14.60
2018-05-11T07:00:08.465Z,10.00
2018-05-11T07:02:36.863Z,8.40
2018-05-11T07:05:05.224Z,5.33
2018-05-11T07:07:33.772Z,5.10
2018-05-11T07:10:02.081Z,8.77
2018-05-11T07:12:30.607Z,6.80
2018-05-11T07:14:58.985Z,10.67
2018-05-11T07:17:27.418Z,7.40
2018-05-11T07:19:56.106Z,8.33
2018-05-11T07:22:24.428Z,6.10
2018-05-11T07:24:52.749Z,4.80
2018-05-11T07:27:21.342Z,10.00
2018-05-11T07:29:49.667Z,10.23
2018-05-11T07:32:17.989Z,10.00
2018-05-11T07:34:46.791Z,9.53
2018-05-11T07:37:15.089Z,7.80
2018-05-11T07:39:43.499Z,6.53
2018-05-11T07:42:11.991Z,7.07
2018-05-11T07:44:40.379Z,9.43
2018-05-11T07:47:08.737Z,7.80
2018-05-11T07:49:37.262Z,14.13
2018-05-11T07:52:05.597Z,11.20
2018-05-11T07:54:33.995Z,10.07
2018-05-11T07:57:02.785Z,8.90
2018-05-11T07:59:31.222Z,9.93
2018-05-11T08:01:59.552Z,5.20
2018-05-11T08:04:27.927Z,8.93
2018-05-11T08:06:57.260Z,8.53
2018-05-11T08:09:25.620Z,6.53
2018-05-11T08:11:54.193Z,10.37
2018-05-11T08:14:22.613Z,7.83
2018-05-11T08:16:50.790Z,6.90
2018-05-11T08:19:19.150Z,7.43
2018-05-11T08:21:47.480Z,4.63
2018-05-11T08:24:15.805Z,4.40
2018-05-11T08:26:44.160Z,4.67
2018-05-11T08:29:12.478Z,5.57
2018-05-11T08:31:40.796Z,10.13
2018-05-11T08:34:09.842Z,4.03
2018-05-11T08:36:38.228Z,8.30
2018-05-11T08:39:06.606Z,7.63
2018-05-11T08:41:34.999Z,11.53
2018-05-11T08:44:03.388Z,4.00
2018-05-11T08:46:31.917Z,5.00
2018-05-11T08:49:00.548Z,2.23
2018-05-11T08:51:29.014Z,5.57
2018-05-11T08:53:57.380Z,3.03
2018-05-11T08:56:25.963Z,3.30
2018-05-11T08:58:54.293Z,1.80
2018-05-11T09:01:22.681Z,2.10
2018-05-11T09:03:51.029Z,8.20
2018-05-11T09:06:19.323Z,3.10
2018-05-11T09:08:47.706Z,3.47
2018-05-11T09:11:16.098Z,3.63
2018-05-11T09:13:44.349Z,4.03
2018-05-11T09:16:12.690Z,3.97
2018-05-11T09:21:32.698Z,2.50
2018-05-11T09:24:01.230Z,2.93
2018-05-11T09:26:29.800Z,2.20
2018-05-11T09:28:58.286Z,3.70
2018-05-11T09:31:26.734Z,13.20
2018-05-11T09:33:55.210Z,2.73
2018-05-11T09:36:24.464Z,3.07
2018-05-11T09:38:52.790Z,2.73
2018-05-11T09:41:21.098Z,2.43
2018-05-11T09:43:49.883Z,1.87
2018-05-11T09:46:18.225Z,3.27
2018-05-11T09:48:46.613Z,3.37
2018-05-11T09:51:14.937Z,2.00
2018-05-11T09:53:43.262Z,3.80
2018-05-11T09:56:11.571Z,3.43
2018-05-11T09:58:39.998Z,9.93
2018-05-11T10:01:08.329Z,2.13
2018-05-11T10:03:36.652Z,7.27
2018-05-11T10:06:05.209Z,2.70
2018-05-11T10:08:33.545Z,2.43
2018-05-11T10:11:01.942Z,1.93
2018-05-11T10:13:30.404Z,1.10
2018-05-11T10:15:58.813Z,4.00
2018-05-11T10:18:27.428Z,2.03
2018-05-11T10:20:56.442Z,8.00
2018-05-11T10:23:24.733Z,2.07
2018-05-11T10:25:53.033Z,2.27
2018-05-11T10:28:21.450Z,1.70
2018-05-11T10:30:49.766Z,4.77
2018-05-11T10:33:18.077Z,3.10
2018-05-11T10:35:46.433Z,3.40
2018-05-11T10:38:14.741Z,4.97
2018-05-11T10:40:43.053Z,2.57
2018-05-11T10:43:11.417Z,2.03
2018-05-11T10:45:39.729Z,2.27
2018-05-11T10:48:08.075Z,2.30
2018-05-11T10:50:36.580Z,3.50
2018-05-11T10:53:04.929Z,2.40
2018-05-11T10:55:33.316Z,4.33
2018-05-11T10:58:01.925Z,2.70
2018-05-11T11:00:30.361Z,6.73
2018-05-11T11:02:58.681Z,3.00
2018-05-11T11:05:27.278Z,3.90
2018-05-11T11:08:10.730Z,2.47
2018-05-11T11:13:30.289Z,8.03
2018-05-11T11:15:58.565Z,3.60
2018-05-11T11:18:27.217Z,4.80
2018-05-11T11:20:56.146Z,6.50
2018-05-11T11:23:24.558Z,5.07
2018-05-11T11:25:52.915Z,4.20
2018-05-11T11:28:21.246Z,10.23
2018-05-11T11:30:49.852Z,3.23
2018-05-11T11:33:18.135Z,3.47
2018-05-11T11:35:46.745Z,4.73
2018-05-11T11:38:15.045Z,4.77
2018-05-11T11:40:43.357Z,6.27
2018-05-11T11:43:11.715Z,5.67
2018-05-11T11:45:40.014Z,4.10
2018-05-11T11:48:08.340Z,6.47
2018-05-11T11:50:37.105Z,5.87
2018-05-11T11:55:59.078Z,4.17
2018-05-11T11:58:27.455Z,6.23
2018-05-11T12:00:55.909Z,15.10
2018-05-11T12:03:24.286Z,11.83
2018-05-11T12:05:52.622Z,5.13
2018-05-11T12:08:20.917Z,12.23
2018-05-11T12:10:49.364Z,3.77
2018-05-11T12:13:17.686Z,6.90
2018-05-11T12:15:46.086Z,6.03
2018-05-11T12:18:14.384Z,3.67
2018-05-11T12:20:42.696Z,9.10
2018-05-11T12:23:11.007Z,8.50
2018-05-11T12:25:39.361Z,3.90
2018-05-11T12:28:07.719Z,7.43
2018-05-11T12:30:36.162Z,9.17
2018-05-11T12:33:04.571Z,4.53
2018-05-11T12:35:32.966Z,11.30
2018-05-11T12:38:01.366Z,20.97
2018-05-11T12:40:30.559Z,5.67
2018-05-11T12:42:59.117Z,10.80
2018-05-11T12:45:27.491Z,12.20
2018-05-11T12:47:55.864Z,12.87
2018-05-11T12:50:24.218Z,3.43
2018-05-11T12:52:52.584Z,6.80
2018-05-11T12:55:21.612Z,9.83
2018-05-11T12:57:49.913Z,5.83
2018-05-11T13:00:18.233Z,6.33
2018-05-11T13:02:47.440Z,4.57
2018-05-11T13:05:15.778Z,8.37
2018-05-11T13:07:44.093Z,9.47
2018-05-11T13:10:12.433Z,7.40
2018-05-11T13:12:40.785Z,8.73
2018-05-11T13:15:09.093Z,6.70
2018-05-11T13:17:38.008Z,4.90
2018-05-11T13:20:06.326Z,6.90
2018-05-11T13:22:34.622Z,4.63
2018-05-11T13:25:03.670Z,5.00
2018-05-11T13:27:32.025Z,11.33
2018-05-11T13:30:00.498Z,7.47
2018-05-11T13:32:28.895Z,6.00
2018-05-11T13:34:57.503Z,4.60
2018-05-11T13:37:25.845Z,8.00
2018-05-11T13:39:54.644Z,7.20
2018-05-11T13:42:23.089Z,5.33
2018-05-11T13:44:51.420Z,14.90
2018-05-11T13:47:20.326Z,6.60
2018-05-11T13:49:48.654Z,11.17
2018-05-11T13:52:16.994Z,12.80
2018-05-11T13:54:45.494Z,10.70
2018-05-11T13:57:13.795Z,3.67
2018-05-11T13:59:42.128Z,4.23
2018-05-11T14:02:10.551Z,4.97
2018-05-11T14:04:38.948Z,3.17
2018-05-11T14:07:07.305Z,10.20
2018-05-11T14:09:36.386Z,4.60
2018-05-11T14:12:04.796Z,11.47
2018-05-11T14:14:33.254Z,10.50
2018-05-11T14:17:01.807Z,11.67
2018-05-11T14:19:30.149Z,9.80
2018-05-11T14:21:58.621Z,6.40
2018-05-11T14:24:27.123Z,5.57
2018-05-11T14:26:55.613Z,8.00
2018-05-11T14:29:23.913Z,5.97
2018-05-11T14:31:52.321Z,6.07
2018-05-11T14:34:20.725Z,6.67
2018-05-11T14:36:49.026Z,8.73
2018-05-11T14:39:17.422Z,5.70
2018-05-11T14:41:45.841Z,5.83
2018-05-11T14:44:14.223Z,8.93
2018-05-11T14:46:43.383Z,10.67
2018-05-11T14:49:11.703Z,7.77
2018-05-11T14:51:40.015Z,12.03
2018-05-11T14:54:08.639Z,6.00
2018-05-11T14:56:37.008Z,9.17
2018-05-11T14:59:05.402Z,4.90
2018-05-11T15:01:35.690Z,14.37
2018-05-11T15:04:04.927Z,11.37
2018-05-11T15:06:33.359Z,6.60
2018-05-11T15:09:01.838Z,6.97
2018-05-11T15:11:30.226Z,13.13
2018-05-11T15:13:58.697Z,11.13
2018-05-11T15:16:27.819Z,8.90
2018-05-11T15:18:56.198Z,8.73
2018-05-11T15:21:24.548Z,11.37
2018-05-11T15:23:53.148Z,9.63
2018-05-11T15:26:21.499Z,9.47
2018-05-11T15:28:49.782Z,7.57
2018-05-11T15:31:18.282Z,13.90
2018-05-11T15:33:46.554Z,9.63
2018-05-11T15:36:14.921Z,7.20
2018-05-11T15:38:43.298Z,8.07
2018-05-11T15:41:11.631Z,9.13
2018-05-11T15:43:39.967Z,11.40
2018-05-11T15:46:08.449Z,7.47
2018-05-11T15:48:36.816Z,9.70
2018-05-11T15:51:05.269Z,8.33
2018-05-11T15:53:33.931Z,10.60
2018-05-11T15:56:02.337Z,12.30
2018-05-11T15:58:31.966Z,10.87
2018-05-11T16:01:00.987Z,7.43
2018-05-11T16:03:29.764Z,7.03
2018-05-11T16:05:58.415Z,10.13
2018-05-11T16:08:27.901Z,13.23
2018-05-11T16:10:56.816Z,7.20
2018-05-11T16:13:25.218Z,13.80
2018-05-11T16:15:53.942Z,7.30
2018-05-11T16:18:22.262Z,13.83
2018-05-11T16:20:50.623Z,10.80
2018-05-11T16:23:19.326Z,14.00
2018-05-11T16:25:47.619Z,8.50
2018-05-11T16:28:15.964Z,13.80
2018-05-11T16:30:44.277Z,10.30
2018-05-11T16:33:12.581Z,10.53
2018-05-11T16:35:40.984Z,16.37
2018-05-11T16:38:09.297Z,12.50
2018-05-11T16:40:37.721Z,6.50
2018-05-11T16:43:06.110Z,12.50
2018-05-11T16:45:34.854Z,12.20
2018-05-11T16:48:03.444Z,12.77
2018-05-11T16:50:31.797Z,12.63
2018-05-11T16:53:01.201Z,9.03
2018-05-11T16:55:29.683Z,10.20
2018-05-11T16:57:58.077Z,14.50
2018-05-11T17:00:27.287Z,11.20
2018-05-11T17:02:56.027Z,14.77
2018-05-11T17:05:24.353Z,10.40
2018-05-11T17:07:54.464Z,9.90
2018-05-11T17:10:23.839Z,14.33
2018-05-11T17:12:52.212Z,11.37
2018-05-11T17:15:20.848Z,15.23
2018-05-11T17:17:49.367Z,10.30
2018-05-11T17:20:17.672Z,8.27
2018-05-11T17:22:46.904Z,16.80
2018-05-11T17:25:15.389Z,12.83
2018-05-11T17:27:43.728Z,10.83
2018-05-11T17:30:12.094Z,18.40
2018-05-11T17:32:40.470Z,11.73
2018-05-11T17:35:09.716Z,11.00
2018-05-11T17:37:38.565Z,9.50
2018-05-11T17:40:07.363Z,19.83
2018-05-11T17:42:35.979Z,13.47
2018-05-11T17:45:04.415Z,14.47
2018-05-11T17:47:32.782Z,13.43
2018-05-11T17:50:01.240Z,10.57
2018-05-11T17:52:30.592Z,11.77
2018-05-11T17:54:59.189Z,12.50
2018-05-11T17:57:27.701Z,14.77
2018-05-11T17:59:56.593Z,8.90
2018-05-11T18:02:25.012Z,7.40
2018-05-11T18:04:53.330Z,11.00
2018-05-11T18:07:22.688Z,12.27
2018-05-11T18:09:51.180Z,11.03
2018-05-11T18:12:19.674Z,10.43
2018-05-11T18:14:48.656Z,11.83
2018-05-11T18:17:16.982Z,11.17
2018-05-11T18:19:45.281Z,12.67
2018-05-11T18:22:14.501Z,12.10
2018-05-11T18:24:42.894Z,11.93
2018-05-11T18:27:11.300Z,12.90
2018-05-11T18:29:40.057Z,11.90
2018-05-11T18:32:08.387Z,12.70
2018-05-11T18:34:36.751Z,14.93
2018-05-11T18:37:05.254Z,7.70
2018-05-11T18:39:33.750Z,8.37
2018-05-11T18:42:04.926Z,11.20
2018-05-11T18:44:35.182Z,13.07
2018-05-11T18:47:03.885Z,21.57
2018-05-11T18:49:32.258Z,10.87
2018-05-11T18:52:00.850Z,11.37
2018-05-11T18:54:29.695Z,12.80
2018-05-11T18:56:57.899Z,13.77
2018-05-11T18:59:26.496Z,12.67
2018-05-11T19:01:54.885Z,10.50
2018-05-11T19:04:23.269Z,14.97
2018-05-11T19:06:51.765Z,8.07
2018-05-11T19:09:20.174Z,6.50
2018-05-11T19:11:48.617Z,6.00
2018-05-11T19:14:17.662Z,10.40
2018-05-11T19:16:45.954Z,5.80
2018-05-11T19:19:14.277Z,19.80
2018-05-11T19:21:42.616Z,11.30
2018-05-11T19:24:10.950Z,10.03
2018-05-11T19:26:39.283Z,16.97
2018-05-11T19:29:08.829Z,11.67
2018-05-11T19:31:37.720Z,18.57
2018-05-11T19:34:06.206Z,4.47
2018-05-11T19:36:35.300Z,7.03
2018-05-11T19:39:03.832Z,10.80
2018-05-11T19:41:32.187Z,9.00
2018-05-11T19:44:02.744Z,15.40
2018-05-11T19:46:31.123Z,10.50
2018-05-11T19:48:59.526Z,7.00
2018-05-11T19:51:28.092Z,7.27
2018-05-11T19:53:56.673Z,4.70
2018-05-11T19:56:24.994Z,7.57
2018-05-11T19:58:53.492Z,7.10
2018-05-11T20:01:21.830Z,11.10
2018-05-11T20:03:50.304Z,8.77
2018-05-11T20:06:19.458Z,3.43
2018-05-11T20:08:47.811Z,7.10
2018-05-11T20:11:16.232Z,12.87
2018-05-11T20:13:46.674Z,7.53
2018-05-11T20:16:15.040Z,8.23
2018-05-11T20:18:43.380Z,15.97
2018-05-11T20:21:11.966Z,5.50
2018-05-11T20:23:40.353Z,8.13
2018-05-11T20:26:08.652Z,7.07
2018-05-11T20:28:37.363Z,4.23
2018-05-11T20:31:05.785Z,7.43
2018-05-11T20:33:34.211Z,22.23
2018-05-11T20:36:03.142Z,9.03
2018-05-11T20:38:31.532Z,8.47
2018-05-11T20:41:00.029Z,5.83
2018-05-11T20:43:29.050Z,3.67
2018-05-11T20:45:57.635Z,6.27
2018-05-11T20:48:26.091Z,7.83
2018-05-11T20:50:54.681Z,7.67
2018-05-11T20:53:23.043Z,9.40
2018-05-11T20:55:51.418Z,7.83
2018-05-11T20:58:20.267Z,5.20
2018-05-11T21:00:48.615Z,6.70
2018-05-11T21:03:16.999Z,7.47
2018-05-11T21:05:45.704Z,9.20
2018-05-11T21:08:14.041Z,7.90
2018-05-11T21:10:42.374Z,8.10
2018-05-11T21:13:10.729Z,3.53
2018-05-11T21:15:39.050Z,10.30
2018-05-11T21:18:07.426Z,6.20
2018-05-11T21:20:35.856Z,7.63
2018-05-11T21:23:04.412Z,5.00
2018-05-11T21:25:33.014Z,9.03
2018-05-11T21:28:01.487Z,5.63
2018-05-11T21:30:29.951Z,9.77
2018-05-11T21:32:58.340Z,10.97
2018-05-11T21:35:26.849Z,4.20
2018-05-11T21:37:55.211Z,4.90
2018-05-11T21:40:23.531Z,8.90
2018-05-11T21:42:52.402Z,8.20
2018-05-11T21:45:20.700Z,4.90
2018-05-11T21:47:49.014Z,9.30
2018-05-11T21:50:17.453Z,10.30
2018-05-11T21:52:45.788Z,14.10
2018-05-11T21:55:14.127Z,8.47
2018-05-11T21:57:42.460Z,3.30
2018-05-11T22:00:10.768Z,7.47
2018-05-11T22:02:39.109Z,5.87
2018-05-11T22:05:08.105Z,4.67
2018-05-11T22:07:36.517Z,10.33
2018-05-11T22:10:04.878Z,3.77
2018-05-11T22:12:33.245Z,5.20
2018-05-11T22:15:01.718Z,6.30
2018-05-11T22:17:30.123Z,6.10
2018-05-11T22:20:00.423Z,4.10
2018-05-11T22:22:28.792Z,9.60
2018-05-11T22:24:57.133Z,4.07
2018-05-11T22:27:25.688Z,3.70
2018-05-11T22:29:54.068Z,4.20
2018-05-11T22:32:22.429Z,3.53
2018-05-11T22:34:50.754Z,12.00
2018-05-11T22:37:21.127Z,8.20
2018-05-11T22:39:49.494Z,5.07
2018-05-11T22:42:17.832Z,7.30
2018-05-11T22:44:52.419Z,6.00
2018-05-11T22:47:20.874Z,5.63
2018-05-11T22:49:49.181Z,4.70
2018-05-11T22:52:17.529Z,10.37
2018-05-11T22:54:46.159Z,5.70
2018-05-11T22:57:14.515Z,6.23
2018-05-11T22:59:42.869Z,3.07
2018-05-11T23:02:12.422Z,7.27
2018-05-11T23:04:40.791Z,5.20
2018-05-11T23:07:09.340Z,3.20
2018-05-11T23:09:37.675Z,3.93
2018-05-11T23:12:06.049Z,17.23
2018-05-11T23:14:34.417Z,6.20
2018-05-11T23:17:02.878Z,6.00
2018-05-11T23:19:31.202Z,3.50
2018-05-11T23:22:00.351Z,8.10
2018-05-11T23:24:29.362Z,7.70
2018-05-11T23:26:57.723Z,8.93
2018-05-11T23:29:26.630Z,3.07
2018-05-11T23:31:56.138Z,4.93
2018-05-11T23:34:24.847Z,2.93
2018-05-11T23:36:53.355Z,6.03
2018-05-11T23:39:21.834Z,5.10
2018-05-11T23:41:50.161Z,4.77
2018-05-11T23:44:18.531Z,4.00
2018-05-11T23:46:46.891Z,5.03
2018-05-11T23:49:15.241Z,6.20
2018-05-11T23:51:43.577Z,8.30
2018-05-11T23:54:12.105Z,4.47
2018-05-11T23:56:40.450Z,9.63
2018-05-11T23:59:08.833Z,3.97
